Time;durP1;ratioP1;P1;durP2;ratioP2;P2;SDS_P1;SDS_P2;PMS_P1;PMS_P2;Temp;Humidity;BMP_temperature;BMP_pressure;BME280_temperature;BME280_humidity;BME280_pressure;Samples;Min_cycle;Max_cycle;Signal;HPM_P1;HPM_P2
2023/09/12 00:02:09;;;;;;;31.83;25.48;;;19.10;99.90;;;;;;5112067;28;20051;-65
2023/09/12 00:04:35;;;;;;;31.55;26.65;;;19.20;99.90;;;;;;5120732;27;20080;-65
2023/09/12 00:07:00;;;;;;;33.20;26.20;;;19.10;99.90;;;;;;5119889;28;20034;-65
2023/09/12 00:09:27;;;;;;;31.95;26.58;;;19.10;99.90;;;;;;5115385;28;20079;-65
2023/09/12 00:11:54;;;;;;;31.48;26.92;;;19.10;99.90;;;;;;5112015;28;20047;-65
2023/09/12 00:14:20;;;;;;;31.83;27.05;;;19.10;99.90;;;;;;5121149;28;20114;-65
2023/09/12 00:16:46;;;;;;;35.55;28.15;;;19.10;99.90;;;;;;5119147;28;20130;-65
2023/09/12 00:19:12;;;;;;;35.03;28.02;;;19.10;99.90;;;;;;5123947;28;20060;-65
2023/09/12 00:21:38;;;;;;;34.42;29.65;;;19.10;99.90;;;;;;5141476;27;20051;-65
2023/09/12 00:24:04;;;;;;;33.97;28.15;;;19.00;99.90;;;;;;5116539;27;20058;-65
2023/09/12 00:26:30;;;;;;;38.17;31.63;;;19.00;99.90;;;;;;5116757;27;20042;-65
2023/09/12 00:28:56;;;;;;;34.70;28.88;;;19.00;99.90;;;;;;5114182;27;20035;-65
2023/09/12 00:31:22;;;;;;;39.15;30.10;;;18.90;99.90;;;;;;5107852;28;20066;-65
2023/09/12 00:33:47;;;;;;;36.60;30.63;;;18.90;99.90;;;;;;5117421;28;20505;-65
2023/09/12 00:36:13;;;;;;;37.03;31.30;;;18.90;99.90;;;;;;5123569;28;20122;-65
2023/09/12 00:38:39;;;;;;;38.67;30.45;;;18.80;99.90;;;;;;5110238;28;20039;-65
2023/09/12 00:41:04;;;;;;;41.08;31.77;;;18.70;99.90;;;;;;5118290;28;20130;-65
2023/09/12 00:43:30;;;;;;;36.38;30.65;;;18.70;99.90;;;;;;5110468;28;20039;-65
2023/09/12 00:45:55;;;;;;;38.20;30.92;;;18.70;99.90;;;;;;5118872;27;20576;-65
2023/09/12 00:48:21;;;;;;;42.25;32.60;;;18.70;99.90;;;;;;5121525;27;20047;-66
2023/09/12 00:50:49;;;;;;;38.67;30.55;;;18.80;99.90;;;;;;5121751;27;20516;-65
2023/09/12 00:53:15;;;;;;;43.40;33.42;;;18.80;99.90;;;;;;5121043;27;20418;-65
2023/09/12 00:55:46;;;;;;;39.00;31.00;;;18.80;99.90;;;;;;5105297;27;20034;-65
2023/09/12 00:58:13;;;;;;;38.35;29.85;;;18.80;99.90;;;;;;5135751;27;20118;-65
2023/09/12 01:00:40;;;;;;;38.67;30.75;;;18.80;99.90;;;;;;5105133;27;20100;-65
2023/09/12 01:03:07;;;;;;;37.72;29.55;;;18.80;99.90;;;;;;5118816;27;20043;-65
2023/09/12 01:05:33;;;;;;;36.00;29.40;;;18.80;99.90;;;;;;5120953;27;20060;-65
2023/09/12 01:08:00;;;;;;;36.60;30.20;;;18.80;99.90;;;;;;5123288;27;20050;-65
2023/09/12 01:10:26;;;;;;;33.28;28.65;;;18.70;99.90;;;;;;5121143;27;20386;-65
2023/09/12 01:12:52;;;;;;;36.67;30.63;;;18.70;99.90;;;;;;5123627;27;20048;-65
2023/09/12 01:15:18;;;;;;;34.85;28.95;;;18.70;99.90;;;;;;5115350;27;20063;-65
2023/09/12 01:17:45;;;;;;;34.30;29.00;;;18.60;99.90;;;;;;5128000;27;20071;-65
2023/09/12 01:20:27;;;;;;;36.25;30.35;;;18.60;99.90;;;;;;5112112;28;20044;-65
2023/09/12 01:23:19;;;;;;;37.15;30.58;;;18.60;99.90;;;;;;5113010;27;20039;-65
2023/09/12 01:26:03;;;;;;;;;;;18.60;99.90;;;;;;5130484;27;20045;-65
2023/09/12 01:28:31;;;;;;;37.22;31.10;;;18.50;99.90;;;;;;5118188;27;20014;-65
2023/09/12 01:30:59;;;;;;;35.03;29.23;;;18.50;99.90;;;;;;5115247;27;20036;-65
2023/09/12 01:33:25;;;;;;;35.60;30.65;;;18.50;99.90;;;;;;5118481;27;20035;-65
2023/09/12 01:35:51;;;;;;;37.75;31.92;;;18.50;99.90;;;;;;5119737;27;20027;-65
2023/09/12 01:38:16;;;;;;;35.85;30.05;;;18.50;99.90;;;;;;5122055;27;20031;-65
2023/09/12 01:40:54;;;;;;;36.47;30.80;;;18.50;99.90;;;;;;5124696;27;20129;-65
2023/09/12 01:43:23;;;;;;;37.58;30.33;;;18.50;99.90;;;;;;5116456;27;20055;-65
2023/09/12 01:45:52;;;;;;;38.83;30.92;;;18.50;99.90;;;;;;5119110;27;20038;-65
2023/09/12 01:48:23;;;;;;;37.42;30.35;;;18.40;99.90;;;;;;5119699;27;20054;-65
2023/09/12 01:50:50;;;;;;;37.08;30.35;;;18.40;99.90;;;;;;5117440;27;20031;-65
2023/09/12 01:53:17;;;;;;;35.58;30.42;;;18.40;99.90;;;;;;5116820;27;20386;-65
2023/09/12 01:55:44;;;;;;;40.55;31.75;;;18.40;99.90;;;;;;5120682;27;20047;-65
2023/09/12 01:58:11;;;;;;;38.83;32.45;;;18.40;99.90;;;;;;5119273;27;20043;-65
2023/09/12 02:00:38;;;;;;;42.58;32.05;;;18.40;99.90;;;;;;5113724;27;20050;-65
2023/09/12 02:03:04;;;;;;;37.97;30.95;;;18.40;99.90;;;;;;5110765;28;20039;-65
2023/09/12 02:05:30;;;;;;;44.03;30.45;;;18.40;99.90;;;;;;5115347;27;20635;-65
2023/09/12 02:07:55;;;;;;;41.97;33.00;;;18.40;99.90;;;;;;5118132;27;20031;-65
2023/09/12 02:10:21;;;;;;;44.55;34.40;;;18.40;99.90;;;;;;5118294;27;20039;-65
2023/09/12 02:12:47;;;;;;;39.67;32.08;;;18.40;99.90;;;;;;5118630;27;20075;-65
2023/09/12 02:15:13;;;;;;;42.75;32.85;;;18.40;99.90;;;;;;5120680;27;20371;-65
2023/09/12 02:17:39;;;;;;;45.83;34.83;;;18.50;99.90;;;;;;5117695;27;21671;-65
2023/09/12 02:20:07;;;;;;;52.33;34.85;;;18.50;99.90;;;;;;5119583;27;20047;-65
2023/09/12 02:22:33;;;;;;;49.70;32.35;;;18.50;99.90;;;;;;5119817;27;20039;-65
2023/09/12 02:24:59;;;;;;;41.63;33.10;;;18.40;99.90;;;;;;5119486;27;20088;-65
2023/09/12 02:27:24;;;;;;;45.40;32.65;;;18.40;99.90;;;;;;5120499;27;20047;-65
2023/09/12 02:29:50;;;;;;;39.83;32.60;;;18.40;99.90;;;;;;5110735;27;20366;-65
2023/09/12 02:32:16;;;;;;;45.50;33.10;;;18.40;99.90;;;;;;5119771;27;20055;-65
2023/09/12 02:34:41;;;;;;;48.67;31.75;;;18.40;99.90;;;;;;5118194;27;20047;-65
2023/09/12 02:37:07;;;;;;;39.30;31.13;;;18.40;99.90;;;;;;5120727;27;20047;-65
2023/09/12 02:39:32;;;;;;;33.15;29.42;;;18.30;99.90;;;;;;5114942;27;20417;-66
2023/09/12 02:41:58;;;;;;;82.03;29.05;;;18.30;99.90;;;;;;5118271;27;20043;-65
2023/09/12 02:44:24;;;;;;;56.20;28.55;;;18.40;99.90;;;;;;5110437;27;20039;-65
2023/09/12 02:46:50;;;;;;;49.85;27.83;;;18.30;99.90;;;;;;5116770;27;20054;-65
2023/09/12 02:49:16;;;;;;;66.10;26.85;;;18.30;99.90;;;;;;5126491;27;20046;-65
2023/09/12 02:51:42;;;;;;;63.38;27.17;;;18.20;99.90;;;;;;5137501;27;20674;-65
2023/09/12 02:54:07;;;;;;;37.88;27.52;;;18.20;99.90;;;;;;5120222;27;20050;-65
2023/09/12 02:56:33;;;;;;;74.05;27.45;;;18.20;99.90;;;;;;5116758;27;20038;-65
2023/09/12 02:58:58;;;;;;;45.25;29.10;;;18.10;99.90;;;;;;5119177;27;20036;-65
2023/09/12 03:01:27;;;;;;;101.22;27.25;;;18.10;99.90;;;;;;5114135;27;20039;-65
2023/09/12 03:03:53;;;;;;;106.28;25.00;;;18.10;99.90;;;;;;5115971;27;20047;-64
2023/09/12 03:06:20;;;;;;;146.48;26.70;;;18.10;99.90;;;;;;5117130;27;20088;-65
2023/09/12 03:08:47;;;;;;;136.55;26.27;;;18.00;99.90;;;;;;5112022;27;20100;-65
2023/09/12 03:11:13;;;;;;;157.55;26.40;;;18.00;99.90;;;;;;5121080;27;20085;-65
2023/09/12 03:13:40;;;;;;;109.60;27.08;;;18.00;99.90;;;;;;5118471;27;20043;-65
2023/09/12 03:16:13;;;;;;;125.72;26.67;;;18.00;99.90;;;;;;5129406;27;20392;-65
2023/09/12 03:18:39;;;;;;;124.40;25.58;;;18.00;99.90;;;;;;5127755;27;20118;-65
2023/09/12 03:21:05;;;;;;;104.35;24.77;;;17.90;99.90;;;;;;5126921;27;20122;-65
2023/09/12 03:23:31;;;;;;;138.90;25.95;;;17.90;99.90;;;;;;5122954;27;20035;-65
2023/09/12 03:26:04;;;;;;;85.32;26.30;;;17.90;99.90;;;;;;5136872;27;20054;-65
2023/09/12 03:28:30;;;;;;;50.30;24.98;;;17.90;99.90;;;;;;5119625;27;20035;-65
2023/09/12 03:31:13;;;;;;;59.50;25.45;;;17.90;99.90;;;;;;5109978;27;20035;-65
2023/09/12 03:33:40;;;;;;;79.53;24.92;;;17.90;99.90;;;;;;5094007;28;20072;-65
2023/09/12 03:36:07;;;;;;;41.97;24.42;;;17.90;99.90;;;;;;5110835;28;20043;-65
2023/09/12 03:38:33;;;;;;;36.25;24.23;;;17.80;99.90;;;;;;5121380;27;20039;-65
2023/09/12 03:40:59;;;;;;;28.58;23.02;;;17.90;99.90;;;;;;5120371;27;20065;-65
2023/09/12 03:43:25;;;;;;;29.02;25.00;;;17.90;99.90;;;;;;5112630;28;20045;-65
2023/09/12 03:45:50;;;;;;;31.98;24.27;;;17.90;99.90;;;;;;5110148;28;20394;-65
2023/09/12 03:48:16;;;;;;;26.75;24.05;;;17.90;99.90;;;;;;5109058;28;20398;-65
2023/09/12 03:50:42;;;;;;;43.83;24.75;;;17.90;99.90;;;;;;5109299;28;20040;-65
2023/09/12 03:53:08;;;;;;;31.27;25.65;;;17.90;99.90;;;;;;5112000;28;20138;-65
2023/09/12 03:55:33;;;;;;;148.30;30.17;;;17.90;99.90;;;;;;5116702;28;20130;-65
2023/09/12 03:57:59;;;;;;;31.48;26.05;;;17.90;99.90;;;;;;5116684;28;20123;-65
2023/09/12 04:00:25;;;;;;;26.52;23.83;;;17.80;99.90;;;;;;5118047;28;20031;-65
2023/09/12 04:02:51;;;;;;;30.17;26.38;;;17.90;99.90;;;;;;5116083;28;20104;-65
2023/09/12 04:05:16;;;;;;;34.72;25.77;;;17.90;99.90;;;;;;5109937;27;20039;-65
2023/09/12 04:07:42;;;;;;;28.60;25.48;;;17.90;99.90;;;;;;5108592;28;20039;-65
2023/09/12 04:10:08;;;;;;;38.05;26.38;;;17.90;99.90;;;;;;5127540;28;20039;-65
2023/09/12 04:12:34;;;;;;;69.72;27.73;;;17.90;99.90;;;;;;5119405;28;20043;-65
2023/09/12 04:14:59;;;;;;;75.93;27.83;;;17.80;99.90;;;;;;5121704;28;20043;-65
2023/09/12 04:17:25;;;;;;;52.08;28.77;;;17.80;99.90;;;;;;5126238;28;20031;-65
2023/09/12 04:19:51;;;;;;;81.55;29.98;;;17.80;99.90;;;;;;5125026;27;20031;-65
2023/09/12 04:22:16;;;;;;;73.75;28.98;;;17.80;99.90;;;;;;5117280;27;20124;-65
2023/09/12 04:24:42;;;;;;;97.97;30.27;;;17.80;99.90;;;;;;5118888;27;20444;-65
2023/09/12 04:27:08;;;;;;;159.85;35.58;;;17.70;99.90;;;;;;5133133;27;20043;-65
2023/09/12 04:29:34;;;;;;;198.93;36.70;;;17.70;99.90;;;;;;5120316;27;20462;-65
2023/09/12 04:32:03;;;;;;;46.63;32.17;;;17.70;99.90;;;;;;5114453;27;20039;-64
2023/09/12 04:34:29;;;;;;;84.05;32.85;;;17.70;99.90;;;;;;5113146;27;20096;-64
2023/09/12 04:36:54;;;;;;;84.38;31.73;;;17.70;99.90;;;;;;5132945;27;20043;-65
2023/09/12 04:39:20;;;;;;;79.97;32.75;;;17.70;99.90;;;;;;5133081;27;20035;-64
2023/09/12 04:41:46;;;;;;;46.88;32.03;;;17.70;99.90;;;;;;5121665;27;20055;-64
2023/09/12 04:44:12;;;;;;;96.75;34.83;;;17.70;99.90;;;;;;5118907;27;20042;-64
2023/09/12 04:46:37;;;;;;;100.57;32.78;;;17.70;99.90;;;;;;5114197;27;20031;-64
2023/09/12 04:49:03;;;;;;;82.65;31.98;;;17.70;99.90;;;;;;5117743;27;20403;-64
2023/09/12 04:51:29;;;;;;;168.77;36.50;;;17.60;99.90;;;;;;5114914;27;20577;-64
2023/09/12 04:53:55;;;;;;;46.08;32.22;;;17.70;99.90;;;;;;5120367;27;20505;-65
2023/09/12 04:56:20;;;;;;;46.67;31.38;;;17.70;99.90;;;;;;5114037;27;20032;-64
2023/09/12 04:58:46;;;;;;;102.72;34.65;;;17.60;99.90;;;;;;5115195;27;20129;-64
2023/09/12 05:01:12;;;;;;;55.08;32.03;;;17.60;99.90;;;;;;5121809;27;20070;-64
2023/09/12 05:03:38;;;;;;;76.80;31.88;;;17.60;99.90;;;;;;5123253;27;20451;-64
2023/09/12 05:06:03;;;;;;;53.38;31.92;;;17.60;99.90;;;;;;5121302;27;20134;-64
2023/09/12 05:08:29;;;;;;;71.80;32.63;;;17.60;99.90;;;;;;5118668;27;20051;-64
2023/09/12 05:10:55;;;;;;;60.75;32.60;;;17.70;99.90;;;;;;5116649;27;20067;-64
2023/09/12 05:13:21;;;;;;;139.88;32.90;;;17.60;99.90;;;;;;5125107;27;20059;-64
2023/09/12 05:15:47;;;;;;;241.50;34.72;;;17.60;99.90;;;;;;5118171;27;20081;-64
2023/09/12 05:18:13;;;;;;;193.52;33.50;;;17.60;99.90;;;;;;5120681;27;20031;-64
2023/09/12 05:20:38;;;;;;;96.95;32.83;;;17.50;99.90;;;;;;5118424;27;20359;-64
2023/09/12 05:23:04;;;;;;;70.60;31.33;;;17.50;99.90;;;;;;5114913;27;20051;-64
2023/09/12 05:25:30;;;;;;;95.05;32.67;;;17.50;99.90;;;;;;5118207;27;20040;-64
2023/09/12 05:27:56;;;;;;;95.88;34.20;;;17.50;99.90;;;;;;5115367;27;20122;-63
2023/09/12 05:30:22;;;;;;;103.80;34.47;;;17.50;99.90;;;;;;5113435;27;20038;-63
2023/09/12 05:32:47;;;;;;;44.97;31.70;;;17.50;99.90;;;;;;5114513;27;20051;-64
2023/09/12 05:35:13;;;;;;;84.72;34.15;;;17.50;99.90;;;;;;5113715;27;20126;-64
2023/09/12 05:37:39;;;;;;;50.15;33.33;;;17.40;99.90;;;;;;5123506;27;20073;-64
2023/09/12 05:40:05;;;;;;;56.85;34.67;;;17.50;99.90;;;;;;5122617;27;20085;-65
2023/09/12 05:42:31;;;;;;;56.00;35.70;;;17.50;99.90;;;;;;5111663;27;20066;-64
2023/09/12 05:44:57;;;;;;;52.63;33.28;;;17.50;99.90;;;;;;5115000;27;20043;-64
2023/09/12 05:47:23;;;;;;;46.08;33.70;;;17.60;99.90;;;;;;5111279;27;20558;-64
2023/09/12 05:49:50;;;;;;;49.30;35.00;;;17.60;99.90;;;;;;5111852;27;20067;-64
2023/09/12 05:52:15;;;;;;;46.38;32.55;;;17.70;99.90;;;;;;5093134;28;20047;-64
2023/09/12 05:54:42;;;;;;;46.92;34.53;;;17.70;99.90;;;;;;5125031;27;20555;-64
2023/09/12 05:57:09;;;;;;;57.25;36.05;;;17.70;99.90;;;;;;5148529;27;20148;-64
2023/09/12 05:59:37;;;;;;;49.67;34.38;;;17.80;99.90;;;;;;5121228;27;20061;-64
2023/09/12 06:02:04;;;;;;;100.70;35.83;;;17.80;99.90;;;;;;5114326;27;20620;-64
2023/09/12 06:04:30;;;;;;;51.60;35.03;;;17.70;99.90;;;;;;5130922;27;20076;-64
2023/09/12 06:06:56;;;;;;;83.07;34.35;;;17.80;99.90;;;;;;5129140;27;20118;-64
2023/09/12 06:09:28;;;;;;;45.65;33.28;;;17.80;99.90;;;;;;5093429;28;20050;-64
2023/09/12 06:11:53;;;;;;;;;;;17.80;99.90;;;;;;5093736;28;20046;-64
2023/09/12 06:14:19;;;;;;;60.40;34.95;;;17.70;99.90;;;;;;5123458;27;19923;-64
2023/09/12 06:16:45;;;;;;;64.45;35.55;;;17.70;99.90;;;;;;5128669;27;20046;-64
2023/09/12 06:19:11;;;;;;;87.95;37.60;;;17.70;99.90;;;;;;5116016;27;20054;-63
2023/09/12 06:21:36;;;;;;;61.53;36.35;;;17.70;99.90;;;;;;5118185;27;20046;-64
2023/09/12 06:24:14;;;;;;;66.03;35.67;;;17.70;99.90;;;;;;5117544;27;20497;-63
2023/09/12 06:26:40;;;;;;;54.50;34.63;;;17.70;99.90;;;;;;5121639;27;20091;-63
2023/09/12 06:29:06;;;;;;;54.00;34.58;;;17.70;99.90;;;;;;5137624;27;20043;-64
2023/09/12 06:31:32;;;;;;;68.45;35.45;;;17.70;99.90;;;;;;5118101;27;20394;-64
2023/09/12 06:33:59;;;;;;;58.13;34.72;;;17.70;99.90;;;;;;5112642;27;20169;-64
2023/09/12 06:36:25;;;;;;;51.92;34.60;;;17.70;99.90;;;;;;5122611;27;20490;-64
2023/09/12 06:38:51;;;;;;;47.35;33.75;;;17.70;99.90;;;;;;5110284;27;20055;-64
2023/09/12 06:41:20;;;;;;;50.17;33.88;;;17.80;99.90;;;;;;5125089;27;20034;-64
2023/09/12 06:43:46;;;;;;;43.78;33.08;;;17.90;99.90;;;;;;5124121;27;20042;-64
2023/09/12 06:46:11;;;;;;;52.70;33.85;;;18.00;99.90;;;;;;5122641;27;20047;-64
2023/09/12 06:48:37;;;;;;;48.80;33.60;;;18.00;99.90;;;;;;5109715;28;20099;-64
2023/09/12 06:51:08;;;;;;;42.78;33.00;;;18.00;99.90;;;;;;5109658;28;20043;-64
2023/09/12 06:53:34;;;;;;;52.60;33.03;;;18.00;99.90;;;;;;5128748;27;20039;-64
2023/09/12 06:55:59;;;;;;;40.17;31.65;;;18.00;99.90;;;;;;5130172;27;20046;-64
2023/09/12 06:58:25;;;;;;;45.47;33.40;;;18.10;99.90;;;;;;5130031;27;20446;-64
2023/09/12 07:00:51;;;;;;;52.45;35.55;;;18.10;99.90;;;;;;5147391;27;20413;-63
2023/09/12 07:03:17;;;;;;;44.65;33.30;;;18.10;99.90;;;;;;5129287;27;20146;-64
2023/09/12 07:05:43;;;;;;;50.42;35.80;;;18.20;99.90;;;;;;5130062;27;20058;-64
2023/09/12 07:08:10;;;;;;;49.60;35.38;;;18.20;99.90;;;;;;5113741;27;20031;-63
2023/09/12 07:10:36;;;;;;;60.47;38.22;;;18.20;99.90;;;;;;5112533;27;20027;-64
2023/09/12 07:13:02;;;;;;;62.60;39.53;;;18.20;99.90;;;;;;5111479;27;20389;-64
2023/09/12 07:15:28;;;;;;;56.00;37.25;;;18.20;99.90;;;;;;5111442;27;20558;-64
2023/09/12 07:17:53;;;;;;;52.65;36.65;;;18.30;99.90;;;;;;5118069;27;20130;-63
2023/09/12 07:20:20;;;;;;;58.80;38.53;;;18.30;99.90;;;;;;5140729;27;20051;-64
2023/09/12 07:22:46;;;;;;;59.40;39.13;;;18.50;99.90;;;;;;5129719;27;20054;-64
2023/09/12 07:25:13;;;;;;;65.50;40.65;;;18.50;99.90;;;;;;5130028;27;20065;-64
2023/09/12 07:27:39;;;;;;;59.88;39.13;;;18.50;99.90;;;;;;5126390;27;20031;-64
2023/09/12 07:30:06;;;;;;;62.40;41.38;;;18.50;99.90;;;;;;5123326;27;20509;-64
2023/09/12 07:32:32;;;;;;;70.47;42.60;;;18.60;99.90;;;;;;5109565;28;20486;-64
2023/09/12 07:34:58;;;;;;;61.33;39.95;;;18.60;99.90;;;;;;5109228;28;20173;-64
2023/09/12 07:37:24;;;;;;;63.83;41.80;;;18.70;99.90;;;;;;5110763;27;20044;-64
2023/09/12 07:39:49;;;;;;;69.43;41.78;;;18.80;99.90;;;;;;5113193;27;20043;-64
2023/09/12 07:42:15;;;;;;;63.20;40.60;;;18.90;99.90;;;;;;5112466;27;20501;-63
2023/09/12 07:44:40;;;;;;;66.32;42.13;;;19.00;99.90;;;;;;5119943;27;20066;-64
2023/09/12 07:47:07;;;;;;;65.88;41.92;;;19.10;99.90;;;;;;5109712;28;20035;-64
2023/09/12 07:49:33;;;;;;;62.83;42.33;;;19.10;99.90;;;;;;5117143;27;20042;-64
2023/09/12 07:51:58;;;;;;;63.53;42.05;;;19.10;99.90;;;;;;5108792;28;20055;-64
2023/09/12 07:54:24;;;;;;;61.65;41.13;;;19.20;99.90;;;;;;5124832;28;20095;-64
2023/09/12 07:56:50;;;;;;;61.83;42.40;;;19.20;99.90;;;;;;5115909;28;20402;-64
2023/09/12 07:59:15;;;;;;;62.17;40.92;;;19.30;99.90;;;;;;5122076;28;20039;-64
2023/09/12 08:01:41;;;;;;;60.70;42.70;;;19.30;99.90;;;;;;5128962;27;20427;-64
2023/09/12 08:04:06;;;;;;;65.45;42.53;;;19.30;99.90;;;;;;5122272;28;20045;-64
2023/09/12 08:06:33;;;;;;;55.33;37.45;;;19.30;99.90;;;;;;5129590;27;20062;-64
2023/09/12 08:08:58;;;;;;;57.58;38.70;;;19.40;99.90;;;;;;5113060;28;20038;-64
2023/09/12 08:11:24;;;;;;;58.58;39.80;;;19.40;99.90;;;;;;5126460;28;20055;-64
2023/09/12 08:13:50;;;;;;;58.05;41.03;;;19.40;99.90;;;;;;5127446;28;20100;-64
2023/09/12 08:16:16;;;;;;;58.08;41.05;;;19.40;99.90;;;;;;5128255;28;20068;-64
2023/09/12 08:18:42;;;;;;;52.80;36.15;;;19.50;99.90;;;;;;5110030;28;20112;-64
2023/09/12 08:21:08;;;;;;;52.40;36.60;;;19.50;99.90;;;;;;5113058;28;20047;-64
2023/09/12 08:23:34;;;;;;;54.47;39.25;;;19.50;99.90;;;;;;5130345;28;20109;-64
2023/09/12 08:26:00;;;;;;;52.05;37.42;;;19.60;99.90;;;;;;5125482;28;20047;-64
2023/09/12 08:28:25;;;;;;;51.13;37.95;;;19.70;99.90;;;;;;5111236;28;20039;-64
2023/09/12 08:30:51;;;;;;;55.08;38.35;;;19.80;99.90;;;;;;5119597;28;20485;-63
2023/09/12 08:33:17;;;;;;;53.38;38.05;;;19.90;99.90;;;;;;5115100;28;20091;-64
2023/09/12 08:35:43;;;;;;;55.90;38.72;;;20.00;99.90;;;;;;5128367;28;20051;-64
2023/09/12 08:38:09;;;;;;;54.63;39.13;;;20.10;99.90;;;;;;5128538;28;20133;-63
2023/09/12 08:40:35;;;;;;;48.40;36.80;;;20.10;99.90;;;;;;5129105;28;20046;-64
2023/09/12 08:43:03;;;;;;;50.85;37.38;;;20.20;99.90;;;;;;5127928;28;20047;-64
2023/09/12 08:45:29;;;;;;;48.05;36.80;;;20.20;99.90;;;;;;5126589;28;20095;-64
2023/09/12 08:48:00;;;;;;;45.95;36.05;;;20.30;99.90;;;;;;5119651;28;20043;-64
2023/09/12 08:50:28;;;;;;;41.53;33.13;;;20.60;99.90;;;;;;5115452;28;20466;-64
2023/09/12 08:52:54;;;;;;;45.30;35.00;;;20.70;99.90;;;;;;5128926;28;20062;-64
2023/09/12 08:55:19;;;;;;;45.53;35.55;;;21.00;99.90;;;;;;5122892;28;20039;-64
2023/09/12 08:57:49;;;;;;;41.15;32.47;;;21.10;99.90;;;;;;5115414;28;20185;-64
2023/09/12 09:00:16;;;;;;;41.33;33.22;;;21.20;99.90;;;;;;5128810;28;20042;-64
2023/09/12 09:02:43;;;;;;;40.35;33.08;;;21.30;99.90;;;;;;5129039;28;20039;-63
2023/09/12 09:05:10;;;;;;;39.83;32.95;;;21.30;99.90;;;;;;5126222;27;20374;-64
2023/09/12 09:07:41;;;;;;;44.17;33.63;;;21.40;99.90;;;;;;5119813;27;20439;-64
2023/09/12 09:10:18;;;;;;;41.10;33.30;;;21.40;99.90;;;;;;5134137;27;20083;-64
2023/09/12 09:12:45;;;;;;;44.35;32.70;;;21.30;99.90;;;;;;5133019;27;20039;-64
2023/09/12 09:15:21;;;;;;;41.08;32.35;;;21.30;99.90;;;;;;5116885;27;20042;-64
2023/09/12 09:17:47;;;;;;;38.28;32.30;;;21.20;99.90;;;;;;5116271;27;20052;-63
2023/09/12 09:20:28;;;;;;;39.83;32.88;;;21.20;99.90;;;;;;5112258;28;20068;-64
2023/09/12 09:23:10;;;;;;;42.28;33.70;;;21.10;99.90;;;;;;5132031;27;20039;-64
2023/09/12 09:25:40;;;;;;;45.70;36.15;;;21.10;99.90;;;;;;5132442;27;20059;-63
2023/09/12 09:28:19;;;;;;;44.22;35.72;;;21.00;99.90;;;;;;5113142;27;20120;-64
2023/09/12 09:30:50;;;;;;;45.00;36.97;;;20.90;99.90;;;;;;5112347;28;20044;-63
2023/09/12 09:33:16;;;;;;;45.23;34.37;;;20.90;99.90;;;;;;5114251;27;20085;-64
2023/09/12 09:35:43;;;;;;;44.33;35.25;;;21.10;99.90;;;;;;5112924;28;20274;-63
2023/09/12 09:38:09;;;;;;;45.17;35.65;;;21.20;99.90;;;;;;5111570;27;20047;-63
2023/09/12 09:40:36;;;;;;;44.88;36.63;;;21.30;99.90;;;;;;5114334;27;20049;-63
2023/09/12 09:43:03;;;;;;;45.10;36.90;;;21.50;99.90;;;;;;5111439;28;20043;-63
2023/09/12 09:45:30;;;;;;;44.65;37.25;;;21.90;99.90;;;;;;5113048;27;20036;-63
2023/09/12 09:48:06;;;;;;;39.20;34.03;;;22.00;99.90;;;;;;5112549;27;20043;-63
2023/09/12 09:50:36;;;;;;;42.08;34.78;;;22.20;99.90;;;;;;5094667;28;20050;-63
2023/09/12 09:53:04;;;;;;;39.83;34.72;;;22.60;99.90;;;;;;5110824;28;20062;-64
2023/09/12 09:55:32;;;;;;;36.38;32.50;;;22.90;99.90;;;;;;5111827;28;20050;-64
2023/09/12 09:57:57;;;;;;;35.35;31.33;;;23.30;99.90;;;;;;5113512;27;20162;-63
2023/09/12 10:00:24;;;;;;;34.95;28.50;;;23.30;99.90;;;;;;5113266;27;20118;-63
2023/09/12 10:02:52;;;;;;;33.33;28.10;;;23.50;99.90;;;;;;5111072;28;20050;-63
2023/09/12 10:05:18;;;;;;;34.40;30.73;;;23.50;99.90;;;;;;5112536;27;20063;-64
2023/09/12 10:07:49;;;;;;;38.13;32.33;;;23.50;99.90;;;;;;5144014;27;20096;-63
2023/09/12 10:10:16;;;;;;;33.25;29.65;;;23.50;99.90;;;;;;5124084;27;20047;-65
2023/09/12 10:12:50;;;;;;;34.67;29.95;;;23.40;99.90;;;;;;5121218;27;20051;-64
2023/09/12 10:15:18;;;;;;;35.42;30.25;;;23.40;99.90;;;;;;5114668;27;20040;-64
2023/09/12 10:17:47;;;;;;;35.70;30.05;;;23.70;99.90;;;;;;5113755;27;20067;-64
2023/09/12 10:20:18;;;;;;;33.13;28.27;;;23.90;99.90;;;;;;5125088;27;20088;-65
2023/09/12 10:22:59;;;;;;;33.53;29.93;;;23.70;99.90;;;;;;5118225;27;20557;-64
2023/09/12 10:25:26;;;;;;;34.60;29.63;;;23.70;99.90;;;;;;5112256;27;20298;-65
2023/09/12 10:27:53;;;;;;;33.20;28.75;;;23.80;99.90;;;;;;5111849;28;20054;-64
2023/09/12 10:30:21;;;;;;;30.15;26.30;;;23.60;99.90;;;;;;5120847;27;20046;-64
2023/09/12 10:32:48;;;;;;;29.63;26.50;;;23.60;99.90;;;;;;5112715;27;20035;-65
2023/09/12 10:35:14;;;;;;;29.52;26.40;;;23.60;99.90;;;;;;5095143;27;20035;-64
2023/09/12 10:37:43;;;;;;;30.38;26.40;;;23.80;99.90;;;;;;5117354;27;20071;-64
2023/09/12 10:40:10;;;;;;;29.17;25.58;;;23.80;99.90;;;;;;5111387;27;20410;-64
2023/09/12 10:42:37;;;;;;;30.23;24.73;;;23.90;99.90;;;;;;5116894;27;20047;-64
2023/09/12 10:45:07;;;;;;;27.27;23.00;;;23.90;99.90;;;;;;5130081;27;20031;-64
2023/09/12 10:47:35;;;;;;;29.60;22.73;;;23.90;99.90;;;;;;5121646;27;20096;-64
2023/09/12 10:50:02;;;;;;;27.65;21.35;;;23.80;99.90;;;;;;5112168;27;20490;-64
2023/09/12 10:52:29;;;;;;;26.77;21.98;;;23.60;99.90;;;;;;5121999;27;20047;-64
2023/09/12 10:54:55;;;;;;;26.38;21.80;;;23.60;99.90;;;;;;5140845;27;20043;-65
2023/09/12 10:57:21;;;;;;;28.30;22.45;;;23.60;99.90;;;;;;5111311;28;20092;-64
2023/09/12 10:59:59;;;;;;;25.35;21.77;;;23.60;99.90;;;;;;5110087;28;20039;-65
2023/09/12 11:02:31;;;;;;;25.45;20.38;;;23.50;99.90;;;;;;5112323;27;20054;-64
2023/09/12 11:04:59;;;;;;;24.00;19.75;;;23.60;99.90;;;;;;5115164;27;20035;-64
2023/09/12 11:07:35;;;;;;;25.52;21.08;;;23.50;99.90;;;;;;5127828;27;20043;-65
2023/09/12 11:10:16;;;;;;;26.77;20.45;;;23.50;99.90;;;;;;5111126;27;20035;-64
2023/09/12 11:12:42;;;;;;;23.00;18.27;;;23.60;99.90;;;;;;5111622;27;20035;-64
2023/09/12 11:15:10;;;;;;;25.95;19.50;;;23.60;99.90;;;;;;5110439;27;20052;-64
2023/09/12 11:17:46;;;;;;;20.65;16.80;;;23.60;99.90;;;;;;5114180;27;20498;-65
2023/09/12 11:20:14;;;;;;;22.80;17.55;;;23.70;99.90;;;;;;5113440;27;20047;-64
2023/09/12 11:22:49;;;;;;;21.55;17.08;;;23.80;99.90;;;;;;5123017;27;20054;-65
2023/09/12 11:25:23;;;;;;;23.35;17.27;;;24.10;99.90;;;;;;5117641;27;20085;-64
2023/09/12 11:27:52;;;;;;;20.50;14.95;;;24.60;99.90;;;;;;5121202;27;20035;-64
2023/09/12 11:30:25;;;;;;;18.98;14.68;;;25.00;99.90;;;;;;5110039;28;20473;-65
2023/09/12 11:32:51;;;;;;;19.77;15.23;;;25.20;99.90;;;;;;5113141;27;20393;-65
2023/09/12 11:35:26;;;;;;;18.55;14.55;;;25.20;99.90;;;;;;5118227;27;20044;-65
2023/09/12 11:37:57;;;;;;;15.48;12.50;;;25.40;99.90;;;;;;5114532;27;20046;-64
2023/09/12 11:40:45;;;;;;;14.50;12.85;;;25.60;99.90;;;;;;5125060;27;20789;-64
2023/09/12 11:43:22;;;;;;;15.68;12.23;;;25.70;99.90;;;;;;5109250;28;20080;-64
2023/09/12 11:45:49;;;;;;;14.85;12.25;;;25.90;99.90;;;;;;5121863;27;20047;-65
2023/09/12 11:48:14;;;;;;;15.70;12.15;;;25.80;99.90;;;;;;5120638;27;20039;-64
2023/09/12 11:50:41;;;;;;;16.83;14.18;;;25.90;99.90;;;;;;5127413;27;20508;-64
2023/09/12 11:53:11;;;;;;;17.23;15.02;;;25.70;99.90;;;;;;5110103;28;20458;-64
2023/09/12 11:55:45;;;;;;;16.77;12.18;;;25.50;99.90;;;;;;5125764;28;20047;-65
2023/09/12 11:58:13;;;;;;;15.18;12.38;;;25.10;99.90;;;;;;5129193;27;20074;-64
2023/09/12 12:00:49;;;;;;;15.25;11.73;;;25.00;99.90;;;;;;5129745;28;20043;-65
2023/09/12 12:03:15;;;;;;;13.65;10.07;;;25.20;99.90;;;;;;5109240;28;20054;-64
2023/09/12 12:05:41;;;;;;;13.63;9.70;;;25.30;99.90;;;;;;5109184;28;20039;-65
2023/09/12 12:08:08;;;;;;;11.90;7.68;;;25.40;99.90;;;;;;5109132;28;20067;-65
2023/09/12 12:10:34;;;;;;;13.15;8.85;;;25.50;99.90;;;;;;5118729;28;20027;-65
2023/09/12 12:13:00;;;;;;;9.43;7.95;;;25.40;99.90;;;;;;5113478;28;20047;-64
2023/09/12 12:15:27;;;;;;;11.10;9.05;;;25.50;99.90;;;;;;5109053;28;20039;-65
2023/09/12 12:17:56;;;;;;;11.43;8.63;;;25.50;99.90;;;;;;5110294;28;20046;-65
2023/09/12 12:20:23;;;;;;;9.75;7.60;;;25.50;99.90;;;;;;5114623;28;20035;-65
2023/09/12 12:22:51;;;;;;;13.15;9.15;;;25.60;99.90;;;;;;5129014;28;20070;-65
2023/09/12 12:25:17;;;;;;;12.38;8.45;;;25.60;99.90;;;;;;5129395;28;20518;-65
2023/09/12 12:27:43;;;;;;;12.30;10.50;;;25.50;99.90;;;;;;5129533;28;20114;-64
2023/09/12 12:30:12;;;;;;;15.43;11.07;;;25.30;99.90;;;;;;5129480;28;20023;-64